DVA111 EYPA-EYVI
Flight info
| Callsign | DVA111 |
|---|---|
| Flight time | N/A |
| Altitude | 19000 |
| Route | D009E DCT NAPUS DCT MANUX DCT NEDAM DCT BILDI DCT ODETU DCT VI312 FAP |
| Aircraft | B350/L-SBGRW/S |
Departure
| Time | 2026-04-21 18:17 |
|---|---|
| Airport | Palanga International Airport (EYPA) |
Arrival
| Time | N/A |
|---|---|
| Airport | Vilnius International Airport (EYVI) |
| Time | Latitude | Longitude | Altitude | Speed | Heading |
|---|---|---|---|---|---|
| 2026-04-21 18:17 | 56.04100 | 21.31490 | 6364 ft | 207 kts | 97° |
| 2026-04-21 18:17 | 56.03611 | 21.33931 | 6919 ft | 212 kts | 117° |
| 2026-04-21 18:17 | 56.02690 | 21.36017 | 7457 ft | 216 kts | 130° |
| 2026-04-21 18:17 | 56.01674 | 21.37992 | 7982 ft | 217 kts | 129° |
| 2026-04-21 18:18 | 56.00659 | 21.39990 | 8521 ft | 218 kts | 129° |
| 2026-04-21 18:18 | 55.99632 | 21.41995 | 9070 ft | 219 kts | 128° |
| 2026-04-21 18:18 | 55.98614 | 21.43970 | 9619 ft | 219 kts | 128° |
| 2026-04-21 18:18 | 55.97584 | 21.45970 | 10172 ft | 219 kts | 128° |
| 2026-04-21 18:19 | 55.96553 | 21.47975 | 10686 ft | 219 kts | 128° |
| 2026-04-21 18:19 | 55.95520 | 21.49980 | 11207 ft | 219 kts | 127° |
| 2026-04-21 18:19 | 55.94485 | 21.51987 | 11735 ft | 220 kts | 127° |
| 2026-04-21 18:19 | 55.93450 | 21.53998 | 12271 ft | 220 kts | 127° |
| 2026-04-21 18:20 | 55.92410 | 21.56009 | 12813 ft | 220 kts | 126° |
| 2026-04-21 18:20 | 55.91372 | 21.58019 | 13374 ft | 220 kts | 126° |
| 2026-04-21 18:20 | 55.90332 | 21.60031 | 13945 ft | 220 kts | 126° |
| 2026-04-21 18:20 | 55.89296 | 21.62033 | 14453 ft | 220 kts | 126° |
| 2026-04-21 18:21 | 55.88255 | 21.64042 | 14970 ft | 220 kts | 125° |
| 2026-04-21 18:21 | 55.87215 | 21.66048 | 15496 ft | 220 kts | 125° |
| 2026-04-21 18:21 | 55.86177 | 21.68049 | 16026 ft | 220 kts | 125° |
| 2026-04-21 18:21 | 55.85136 | 21.70054 | 16574 ft | 220 kts | 125° |
| 2026-04-21 18:22 | 55.84111 | 21.72024 | 17113 ft | 220 kts | 124° |
| 2026-04-21 18:22 | 55.83070 | 21.74026 | 17678 ft | 220 kts | 124° |
| 2026-04-21 18:22 | 55.82027 | 21.76029 | 18247 ft | 220 kts | 124° |
| 2026-04-21 18:22 | 55.80987 | 21.78026 | 18779 ft | 220 kts | 124° |
| 2026-04-21 18:23 | 55.79951 | 21.80013 | 19284 ft | 219 kts | 124° |
| 2026-04-21 18:23 | 55.78914 | 21.81999 | 19799 ft | 219 kts | 123° |
| 2026-04-21 18:23 | 55.77881 | 21.83976 | 20325 ft | 218 kts | 123° |
| 2026-04-21 18:23 | 55.76848 | 21.85952 | 20859 ft | 217 kts | 123° |
| 2026-04-21 18:24 | 55.75781 | 21.88004 | 20976 ft | 237 kts | 124° |
| 2026-04-21 18:24 | 55.74604 | 21.90235 | 20981 ft | 255 kts | 125° |
| 2026-04-21 18:24 | 55.73355 | 21.92594 | 20984 ft | 268 kts | 126° |
| 2026-04-21 18:24 | 55.72058 | 21.95058 | 20986 ft | 277 kts | 126° |
| 2026-04-21 18:25 | 55.70741 | 21.97561 | 20986 ft | 284 kts | 126° |
| 2026-04-21 18:25 | 55.69385 | 22.00135 | 20978 ft | 288 kts | 126° |
| 2026-04-21 18:25 | 55.68014 | 22.02763 | 20975 ft | 289 kts | 123° |
| 2026-04-21 18:25 | 55.66914 | 22.05682 | 20972 ft | 283 kts | 111° |
| 2026-04-21 18:26 | 55.65972 | 22.08758 | 20978 ft | 285 kts | 112° |
| 2026-04-21 18:26 | 55.65002 | 22.11825 | 20978 ft | 286 kts | 112° |
| 2026-04-21 18:26 | 55.64030 | 22.14906 | 20976 ft | 286 kts | 112° |
| 2026-04-21 18:26 | 55.63067 | 22.17984 | 20979 ft | 287 kts | 112° |
| 2026-04-21 18:27 | 55.62097 | 22.21078 | 20977 ft | 287 kts | 112° |
| 2026-04-21 18:27 | 55.61125 | 22.24164 | 20977 ft | 287 kts | 112° |
| 2026-04-21 18:27 | 55.60151 | 22.27258 | 20967 ft | 287 kts | 112° |
| 2026-04-21 18:27 | 55.59179 | 22.30338 | 20969 ft | 287 kts | 112° |
| 2026-04-21 18:28 | 55.58204 | 22.33423 | 20965 ft | 287 kts | 112° |
| 2026-04-21 18:28 | 55.57229 | 22.36507 | 20965 ft | 287 kts | 112° |
| 2026-04-21 18:28 | 55.56253 | 22.39591 | 20960 ft | 287 kts | 112° |
| 2026-04-21 18:28 | 55.55277 | 22.42666 | 20962 ft | 287 kts | 112° |
| 2026-04-21 18:29 | 55.54298 | 22.45749 | 20959 ft | 287 kts | 112° |
| 2026-04-21 18:29 | 55.53322 | 22.48822 | 20958 ft | 287 kts | 112° |
| 2026-04-21 18:29 | 55.52343 | 22.51900 | 20958 ft | 287 kts | 113° |
| 2026-04-21 18:29 | 55.51361 | 22.54976 | 20956 ft | 287 kts | 113° |
| 2026-04-21 18:30 | 55.50380 | 22.58053 | 20953 ft | 287 kts | 113° |
| 2026-04-21 18:30 | 55.49396 | 22.61132 | 20954 ft | 287 kts | 113° |
| 2026-04-21 18:30 | 55.48413 | 22.64205 | 20950 ft | 287 kts | 113° |
| 2026-04-21 18:30 | 55.47440 | 22.67244 | 20951 ft | 288 kts | 113° |
| 2026-04-21 18:31 | 55.46442 | 22.70351 | 20950 ft | 287 kts | 113° |
| 2026-04-21 18:31 | 55.45470 | 22.73379 | 20950 ft | 287 kts | 113° |
| 2026-04-21 18:31 | 55.44487 | 22.76439 | 20947 ft | 287 kts | 113° |
| 2026-04-21 18:31 | 55.43499 | 22.79506 | 20946 ft | 287 kts | 113° |
| 2026-04-21 18:32 | 55.42511 | 22.82569 | 20946 ft | 287 kts | 113° |
| 2026-04-21 18:32 | 55.41524 | 22.85628 | 20949 ft | 287 kts | 113° |
| 2026-04-21 18:32 | 55.40537 | 22.88681 | 20950 ft | 287 kts | 113° |
| 2026-04-21 18:32 | 55.39548 | 22.91737 | 20945 ft | 287 kts | 113° |
| 2026-04-21 18:33 | 55.38562 | 22.94780 | 20945 ft | 287 kts | 113° |
| 2026-04-21 18:33 | 55.37570 | 22.97838 | 20945 ft | 287 kts | 113° |
| 2026-04-21 18:33 | 55.36580 | 23.00887 | 20941 ft | 287 kts | 113° |
| 2026-04-21 18:33 | 55.35590 | 23.03931 | 20948 ft | 287 kts | 113° |
| 2026-04-21 18:34 | 55.34597 | 23.06978 | 20943 ft | 287 kts | 114° |
| 2026-04-21 18:34 | 55.33606 | 23.10019 | 20944 ft | 287 kts | 114° |
| 2026-04-21 18:34 | 55.32613 | 23.13059 | 20946 ft | 287 kts | 114° |
| 2026-04-21 18:34 | 55.31619 | 23.16100 | 20943 ft | 287 kts | 114° |
| 2026-04-21 18:35 | 55.30959 | 23.18117 | 20949 ft | 287 kts | 114° |
| 2026-04-21 18:35 | 55.29641 | 23.22138 | 20944 ft | 287 kts | 114° |
| 2026-04-21 18:35 | 55.28643 | 23.25178 | 20942 ft | 287 kts | 114° |
| 2026-04-21 18:35 | 55.27647 | 23.28212 | 20938 ft | 287 kts | 114° |
| 2026-04-21 18:36 | 55.26651 | 23.31239 | 20940 ft | 287 kts | 114° |
| 2026-04-21 18:36 | 55.25653 | 23.34268 | 20940 ft | 287 kts | 114° |
| 2026-04-21 18:36 | 55.24655 | 23.37296 | 20941 ft | 287 kts | 114° |
| 2026-04-21 18:36 | 55.23657 | 23.40316 | 20939 ft | 287 kts | 114° |
| 2026-04-21 18:37 | 55.22658 | 23.43340 | 20938 ft | 286 kts | 114° |
| 2026-04-21 18:37 | 55.21659 | 23.46358 | 20936 ft | 286 kts | 114° |
| 2026-04-21 18:37 | 55.20658 | 23.49377 | 20938 ft | 286 kts | 114° |
| 2026-04-21 18:37 | 55.19668 | 23.52360 | 20937 ft | 286 kts | 114° |
| 2026-04-21 18:38 | 55.18655 | 23.55409 | 20934 ft | 286 kts | 114° |
| 2026-04-21 18:38 | 55.17665 | 23.58383 | 20932 ft | 286 kts | 114° |
| 2026-04-21 18:38 | 55.16662 | 23.61396 | 20933 ft | 286 kts | 114° |
| 2026-04-21 18:38 | 55.15656 | 23.64411 | 20932 ft | 286 kts | 114° |
| 2026-04-21 18:39 | 55.14652 | 23.67419 | 20931 ft | 286 kts | 114° |
| 2026-04-21 18:39 | 55.13644 | 23.70432 | 20927 ft | 286 kts | 114° |
| 2026-04-21 18:39 | 55.12638 | 23.73440 | 20920 ft | 286 kts | 114° |
| 2026-04-21 18:39 | 55.11631 | 23.76442 | 20925 ft | 286 kts | 114° |
| 2026-04-21 18:40 | 55.10623 | 23.79447 | 20922 ft | 286 kts | 114° |
| 2026-04-21 18:40 | 55.09616 | 23.82444 | 20923 ft | 286 kts | 114° |
| 2026-04-21 18:40 | 55.08948 | 23.84431 | 20921 ft | 286 kts | 114° |
| 2026-04-21 18:40 | 55.07613 | 23.88394 | 20920 ft | 286 kts | 114° |
| 2026-04-21 18:41 | 55.06601 | 23.91394 | 20921 ft | 286 kts | 114° |
| 2026-04-21 18:41 | 55.05592 | 23.94384 | 20920 ft | 286 kts | 114° |
| 2026-04-21 18:41 | 55.04580 | 23.97375 | 20919 ft | 286 kts | 114° |
| 2026-04-21 18:41 | 55.03568 | 24.00367 | 20922 ft | 286 kts | 115° |
| 2026-04-21 18:42 | 55.02555 | 24.03357 | 20920 ft | 286 kts | 114° |
| 2026-04-21 18:42 | 55.01542 | 24.06340 | 20920 ft | 286 kts | 114° |
| 2026-04-21 18:42 | 55.00529 | 24.09322 | 20920 ft | 286 kts | 115° |
| 2026-04-21 18:42 | 54.99514 | 24.12306 | 20919 ft | 286 kts | 115° |
| 2026-04-21 18:43 | 54.98500 | 24.15283 | 20919 ft | 286 kts | 115° |